sensor_id;sensor_type;location;lat;lon;timestamp;P1;durP1;ratioP1;P2;durP2;ratioP2
12511;SDS011;6321;53.798;10.382;2022-08-03T00:00:05;4.63;;;3.27;;
12511;SDS011;6321;53.798;10.382;2022-08-03T00:02:31;3.70;;;3.40;;
12511;SDS011;6321;53.798;10.382;2022-08-03T00:04:57;5.60;;;3.10;;
12511;SDS011;6321;53.798;10.382;2022-08-03T00:07:22;3.60;;;3.30;;
12511;SDS011;6321;53.798;10.382;2022-08-03T00:09:48;5.60;;;3.60;;
12511;SDS011;6321;53.798;10.382;2022-08-03T00:12:14;3.80;;;3.50;;
12511;SDS011;6321;53.798;10.382;2022-08-03T00:14:40;4.00;;;3.70;;
12511;SDS011;6321;53.798;10.382;2022-08-03T00:17:05;4.77;;;3.53;;
12511;SDS011;6321;53.798;10.382;2022-08-03T00:19:31;4.07;;;3.60;;
12511;SDS011;6321;53.798;10.382;2022-08-03T00:21:56;4.07;;;3.43;;
12511;SDS011;6321;53.798;10.382;2022-08-03T00:24:22;5.07;;;3.63;;
12511;SDS011;6321;53.798;10.382;2022-08-03T00:26:47;4.77;;;3.60;;
12511;SDS011;6321;53.798;10.382;2022-08-03T00:29:13;4.60;;;3.23;;
12511;SDS011;6321;53.798;10.382;2022-08-03T00:31:38;3.47;;;3.10;;
12511;SDS011;6321;53.798;10.382;2022-08-03T00:34:04;4.57;;;3.70;;
12511;SDS011;6321;53.798;10.382;2022-08-03T00:36:30;3.70;;;3.40;;
12511;SDS011;6321;53.798;10.382;2022-08-03T00:38:55;4.20;;;3.80;;
12511;SDS011;6321;53.798;10.382;2022-08-03T00:41:21;4.30;;;3.80;;
12511;SDS011;6321;53.798;10.382;2022-08-03T00:43:47;4.10;;;3.40;;
12511;SDS011;6321;53.798;10.382;2022-08-03T00:46:12;4.10;;;3.53;;
12511;SDS011;6321;53.798;10.382;2022-08-03T00:48:38;3.47;;;3.07;;
12511;SDS011;6321;53.798;10.382;2022-08-03T00:51:03;4.10;;;3.70;;
12511;SDS011;6321;53.798;10.382;2022-08-03T00:53:29;3.90;;;3.23;;
12511;SDS011;6321;53.798;10.382;2022-08-03T00:55:56;3.60;;;3.40;;
12511;SDS011;6321;53.798;10.382;2022-08-03T00:58:21;3.87;;;3.57;;
12511;SDS011;6321;53.798;10.382;2022-08-03T01:00:48;4.00;;;3.57;;
12511;SDS011;6321;53.798;10.382;2022-08-03T01:03:14;4.03;;;3.70;;
12511;SDS011;6321;53.798;10.382;2022-08-03T01:05:52;5.17;;;3.87;;
12511;SDS011;6321;53.798;10.382;2022-08-03T01:08:28;3.57;;;3.27;;
12511;SDS011;6321;53.798;10.382;2022-08-03T01:11:33;6.80;;;3.97;;
12511;SDS011;6321;53.798;10.382;2022-08-03T01:16:43;5.67;;;4.00;;
12511;SDS011;6321;53.798;10.382;2022-08-03T01:22:08;3.63;;;3.30;;
12511;SDS011;6321;53.798;10.382;2022-08-03T01:25:14;5.10;;;4.30;;
12511;SDS011;6321;53.798;10.382;2022-08-03T01:28:09;5.00;;;4.50;;
12511;SDS011;6321;53.798;10.382;2022-08-03T01:31:00;4.13;;;3.73;;
12511;SDS011;6321;53.798;10.382;2022-08-03T01:33:33;4.70;;;3.40;;
12511;SDS011;6321;53.798;10.382;2022-08-03T01:36:02;4.97;;;4.17;;
12511;SDS011;6321;53.798;10.382;2022-08-03T01:38:32;4.23;;;3.87;;
12511;SDS011;6321;53.798;10.382;2022-08-03T01:41:01;4.53;;;4.17;;
12511;SDS011;6321;53.798;10.382;2022-08-03T01:43:31;4.50;;;4.10;;
12511;SDS011;6321;53.798;10.382;2022-08-03T01:45:57;6.07;;;4.30;;
12511;SDS011;6321;53.798;10.382;2022-08-03T01:48:24;4.50;;;4.10;;
12511;SDS011;6321;53.798;10.382;2022-08-03T01:50:51;4.77;;;4.23;;
12511;SDS011;6321;53.798;10.382;2022-08-03T01:53:19;4.57;;;4.20;;
12511;SDS011;6321;53.798;10.382;2022-08-03T01:55:47;4.30;;;4.00;;
12511;SDS011;6321;53.798;10.382;2022-08-03T01:58:16;4.43;;;3.93;;
12511;SDS011;6321;53.798;10.382;2022-08-03T02:00:44;4.53;;;4.13;;
12511;SDS011;6321;53.798;10.382;2022-08-03T02:03:11;4.50;;;4.20;;
12511;SDS011;6321;53.798;10.382;2022-08-03T02:05:39;6.43;;;4.17;;
12511;SDS011;6321;53.798;10.382;2022-08-03T02:08:07;4.73;;;4.33;;
12511;SDS011;6321;53.798;10.382;2022-08-03T02:10:34;6.00;;;4.33;;
12511;SDS011;6321;53.798;10.382;2022-08-03T02:13:02;4.97;;;4.57;;
12511;SDS011;6321;53.798;10.382;2022-08-03T02:15:29;5.20;;;4.80;;
12511;SDS011;6321;53.798;10.382;2022-08-03T02:17:57;4.63;;;4.20;;
12511;SDS011;6321;53.798;10.382;2022-08-03T02:20:25;4.80;;;4.40;;
12511;SDS011;6321;53.798;10.382;2022-08-03T02:22:52;4.90;;;4.50;;
12511;SDS011;6321;53.798;10.382;2022-08-03T02:25:18;4.90;;;4.40;;
12511;SDS011;6321;53.798;10.382;2022-08-03T02:27:50;6.23;;;5.03;;
12511;SDS011;6321;53.798;10.382;2022-08-03T02:30:20;4.97;;;4.57;;
12511;SDS011;6321;53.798;10.382;2022-08-03T02:32:47;6.80;;;4.93;;
12511;SDS011;6321;53.798;10.382;2022-08-03T02:35:17;5.73;;;4.73;;
12511;SDS011;6321;53.798;10.382;2022-08-03T02:37:46;5.30;;;4.43;;
12511;SDS011;6321;53.798;10.382;2022-08-03T02:40:15;5.63;;;4.97;;
12511;SDS011;6321;53.798;10.382;2022-08-03T02:42:44;5.57;;;4.83;;
12511;SDS011;6321;53.798;10.382;2022-08-03T02:45:12;7.10;;;5.57;;
12511;SDS011;6321;53.798;10.382;2022-08-03T02:47:40;5.73;;;5.03;;
12511;SDS011;6321;53.798;10.382;2022-08-03T02:50:08;5.57;;;5.00;;
12511;SDS011;6321;53.798;10.382;2022-08-03T02:52:36;7.17;;;4.80;;
12511;SDS011;6321;53.798;10.382;2022-08-03T02:55:03;5.30;;;4.90;;
12511;SDS011;6321;53.798;10.382;2022-08-03T02:57:30;6.50;;;5.13;;
12511;SDS011;6321;53.798;10.382;2022-08-03T02:59:59;5.80;;;5.30;;
12511;SDS011;6321;53.798;10.382;2022-08-03T03:02:26;7.17;;;6.23;;
12511;SDS011;6321;53.798;10.382;2022-08-03T03:04:52;6.50;;;5.90;;
12511;SDS011;6321;53.798;10.382;2022-08-03T03:07:20;5.87;;;5.37;;
12511;SDS011;6321;53.798;10.382;2022-08-03T03:09:45;5.83;;;5.33;;
12511;SDS011;6321;53.798;10.382;2022-08-03T03:12:11;5.80;;;5.30;;
12511;SDS011;6321;53.798;10.382;2022-08-03T03:14:38;5.87;;;5.47;;
12511;SDS011;6321;53.798;10.382;2022-08-03T03:17:08;6.33;;;5.63;;
12511;SDS011;6321;53.798;10.382;2022-08-03T03:19:35;6.17;;;5.47;;
12511;SDS011;6321;53.798;10.382;2022-08-03T03:22:02;6.60;;;6.00;;
12511;SDS011;6321;53.798;10.382;2022-08-03T03:24:30;6.57;;;6.07;;
12511;SDS011;6321;53.798;10.382;2022-08-03T03:26:56;6.87;;;5.70;;
12511;SDS011;6321;53.798;10.382;2022-08-03T03:29:22;6.83;;;6.10;;
12511;SDS011;6321;53.798;10.382;2022-08-03T03:31:48;7.17;;;6.47;;
12511;SDS011;6321;53.798;10.382;2022-08-03T03:34:14;6.33;;;5.93;;
12511;SDS011;6321;53.798;10.382;2022-08-03T03:36:40;7.40;;;6.70;;
12511;SDS011;6321;53.798;10.382;2022-08-03T03:39:06;6.23;;;5.73;;
12511;SDS011;6321;53.798;10.382;2022-08-03T03:41:31;7.03;;;6.33;;
12511;SDS011;6321;53.798;10.382;2022-08-03T03:43:58;6.53;;;5.93;;
12511;SDS011;6321;53.798;10.382;2022-08-03T03:46:24;7.00;;;6.30;;
12511;SDS011;6321;53.798;10.382;2022-08-03T03:48:49;8.33;;;7.50;;
12511;SDS011;6321;53.798;10.382;2022-08-03T03:51:15;7.90;;;6.60;;
12511;SDS011;6321;53.798;10.382;2022-08-03T03:53:53;8.03;;;7.07;;
12511;SDS011;6321;53.798;10.382;2022-08-03T03:56:20;7.23;;;6.57;;
12511;SDS011;6321;53.798;10.382;2022-08-03T03:58:45;7.30;;;6.60;;
12511;SDS011;6321;53.798;10.382;2022-08-03T04:01:11;7.97;;;7.17;;
12511;SDS011;6321;53.798;10.382;2022-08-03T04:03:37;7.40;;;6.70;;
12511;SDS011;6321;53.798;10.382;2022-08-03T04:06:02;7.97;;;7.37;;
12511;SDS011;6321;53.798;10.382;2022-08-03T04:08:46;7.63;;;7.03;;
12511;SDS011;6321;53.798;10.382;2022-08-03T04:11:50;8.63;;;6.97;;
12511;SDS011;6321;53.798;10.382;2022-08-03T04:14:20;8.40;;;7.67;;
12511;SDS011;6321;53.798;10.382;2022-08-03T04:16:54;8.50;;;7.60;;
12511;SDS011;6321;53.798;10.382;2022-08-03T04:19:33;9.37;;;8.37;;
12511;SDS011;6321;53.798;10.382;2022-08-03T04:22:03;8.70;;;7.90;;
12511;SDS011;6321;53.798;10.382;2022-08-03T04:24:37;8.80;;;8.00;;
12511;SDS011;6321;53.798;10.382;2022-08-03T04:27:17;8.40;;;7.70;;
12511;SDS011;6321;53.798;10.382;2022-08-03T04:29:47;9.83;;;9.00;;
12511;SDS011;6321;53.798;10.382;2022-08-03T04:32:15;9.77;;;8.80;;
12511;SDS011;6321;53.798;10.382;2022-08-03T04:34:41;9.30;;;8.40;;
12511;SDS011;6321;53.798;10.382;2022-08-03T04:37:11;9.10;;;8.37;;
12511;SDS011;6321;53.798;10.382;2022-08-03T04:39:42;10.00;;;9.00;;
12511;SDS011;6321;53.798;10.382;2022-08-03T04:42:09;9.50;;;8.20;;
12511;SDS011;6321;53.798;10.382;2022-08-03T04:44:38;8.10;;;7.40;;
12511;SDS011;6321;53.798;10.382;2022-08-03T04:47:05;9.50;;;8.60;;
12511;SDS011;6321;53.798;10.382;2022-08-03T04:49:31;8.77;;;7.80;;
12511;SDS011;6321;53.798;10.382;2022-08-03T04:51:57;8.60;;;7.77;;
12511;SDS011;6321;53.798;10.382;2022-08-03T04:54:22;8.63;;;7.77;;
12511;SDS011;6321;53.798;10.382;2022-08-03T04:56:48;8.30;;;7.60;;
12511;SDS011;6321;53.798;10.382;2022-08-03T04:59:14;7.60;;;6.90;;
12511;SDS011;6321;53.798;10.382;2022-08-03T05:01:41;8.03;;;7.43;;
12511;SDS011;6321;53.798;10.382;2022-08-03T05:04:07;8.40;;;7.70;;
12511;SDS011;6321;53.798;10.382;2022-08-03T05:06:34;10.63;;;9.53;;
12511;SDS011;6321;53.798;10.382;2022-08-03T05:09:00;9.77;;;7.90;;
12511;SDS011;6321;53.798;10.382;2022-08-03T05:11:25;10.10;;;9.10;;
12511;SDS011;6321;53.798;10.382;2022-08-03T05:13:51;8.57;;;7.70;;
12511;SDS011;6321;53.798;10.382;2022-08-03T05:16:16;8.70;;;7.90;;
12511;SDS011;6321;53.798;10.382;2022-08-03T05:18:42;8.17;;;7.47;;
12511;SDS011;6321;53.798;10.382;2022-08-03T05:21:09;7.90;;;7.23;;
12511;SDS011;6321;53.798;10.382;2022-08-03T05:23:36;7.20;;;6.37;;
12511;SDS011;6321;53.798;10.382;2022-08-03T05:26:02;7.83;;;7.10;;
12511;SDS011;6321;53.798;10.382;2022-08-03T05:28:27;6.87;;;6.33;;
12511;SDS011;6321;53.798;10.382;2022-08-03T05:30:53;7.83;;;7.03;;
12511;SDS011;6321;53.798;10.382;2022-08-03T05:33:18;7.57;;;6.93;;
12511;SDS011;6321;53.798;10.382;2022-08-03T05:35:44;7.00;;;6.40;;
12511;SDS011;6321;53.798;10.382;2022-08-03T05:38:09;7.23;;;6.63;;
12511;SDS011;6321;53.798;10.382;2022-08-03T05:40:35;7.20;;;6.63;;
12511;SDS011;6321;53.798;10.382;2022-08-03T05:43:01;7.50;;;6.73;;
12511;SDS011;6321;53.798;10.382;2022-08-03T05:45:26;7.10;;;6.27;;
12511;SDS011;6321;53.798;10.382;2022-08-03T05:47:52;7.47;;;6.87;;
12511;SDS011;6321;53.798;10.382;2022-08-03T05:50:18;6.70;;;6.10;;
12511;SDS011;6321;53.798;10.382;2022-08-03T05:52:44;6.60;;;5.77;;
12511;SDS011;6321;53.798;10.382;2022-08-03T05:55:10;6.87;;;6.27;;
12511;SDS011;6321;53.798;10.382;2022-08-03T05:57:37;6.47;;;5.87;;
12511;SDS011;6321;53.798;10.382;2022-08-03T06:00:06;6.80;;;6.10;;
12511;SDS011;6321;53.798;10.382;2022-08-03T06:02:33;7.17;;;5.80;;
12511;SDS011;6321;53.798;10.382;2022-08-03T06:04:58;5.67;;;5.27;;
12511;SDS011;6321;53.798;10.382;2022-08-03T06:07:24;5.83;;;5.30;;
12511;SDS011;6321;53.798;10.382;2022-08-03T06:09:50;5.67;;;5.17;;
12511;SDS011;6321;53.798;10.382;2022-08-03T06:12:16;5.60;;;5.20;;
12511;SDS011;6321;53.798;10.382;2022-08-03T06:14:41;7.70;;;5.97;;
12511;SDS011;6321;53.798;10.382;2022-08-03T06:17:07;5.77;;;5.37;;
12511;SDS011;6321;53.798;10.382;2022-08-03T06:19:32;5.80;;;5.30;;
12511;SDS011;6321;53.798;10.382;2022-08-03T06:21:57;5.80;;;5.23;;
12511;SDS011;6321;53.798;10.382;2022-08-03T06:24:23;5.07;;;4.57;;
12511;SDS011;6321;53.798;10.382;2022-08-03T06:26:48;4.80;;;4.30;;
12511;SDS011;6321;53.798;10.382;2022-08-03T06:29:14;4.83;;;4.43;;
12511;SDS011;6321;53.798;10.382;2022-08-03T06:31:39;5.00;;;4.60;;
12511;SDS011;6321;53.798;10.382;2022-08-03T06:34:05;4.90;;;4.50;;
12511;SDS011;6321;53.798;10.382;2022-08-03T06:36:31;4.47;;;4.07;;
12511;SDS011;6321;53.798;10.382;2022-08-03T06:38:57;4.20;;;3.90;;
12511;SDS011;6321;53.798;10.382;2022-08-03T06:41:23;4.63;;;4.13;;
12511;SDS011;6321;53.798;10.382;2022-08-03T06:43:49;5.47;;;4.00;;
12511;SDS011;6321;53.798;10.382;2022-08-03T06:46:14;4.20;;;3.90;;
12511;SDS011;6321;53.798;10.382;2022-08-03T06:48:40;5.97;;;3.80;;
12511;SDS011;6321;53.798;10.382;2022-08-03T06:51:06;4.87;;;4.23;;
12511;SDS011;6321;53.798;10.382;2022-08-03T06:53:32;3.90;;;3.60;;
12511;SDS011;6321;53.798;10.382;2022-08-03T06:55:57;4.40;;;3.83;;
12511;SDS011;6321;53.798;10.382;2022-08-03T06:58:23;3.50;;;3.20;;
12511;SDS011;6321;53.798;10.382;2022-08-03T07:00:49;3.70;;;3.40;;
12511;SDS011;6321;53.798;10.382;2022-08-03T07:03:14;4.97;;;3.60;;
12511;SDS011;6321;53.798;10.382;2022-08-03T07:05:40;3.87;;;2.87;;
12511;SDS011;6321;53.798;10.382;2022-08-03T07:08:06;4.00;;;3.60;;
12511;SDS011;6321;53.798;10.382;2022-08-03T07:10:32;4.77;;;3.40;;
12511;SDS011;6321;53.798;10.382;2022-08-03T07:12:58;4.60;;;3.20;;
12511;SDS011;6321;53.798;10.382;2022-08-03T07:15:23;3.17;;;2.97;;
12511;SDS011;6321;53.798;10.382;2022-08-03T07:17:49;3.57;;;3.30;;
12511;SDS011;6321;53.798;10.382;2022-08-03T07:20:15;4.43;;;3.17;;
12511;SDS011;6321;53.798;10.382;2022-08-03T07:22:42;3.90;;;2.80;;
12511;SDS011;6321;53.798;10.382;2022-08-03T07:25:08;5.70;;;3.30;;
12511;SDS011;6321;53.798;10.382;2022-08-03T07:27:34;4.87;;;2.80;;
12511;SDS011;6321;53.798;10.382;2022-08-03T07:29:59;4.57;;;3.00;;
12511;SDS011;6321;53.798;10.382;2022-08-03T07:32:25;3.67;;;3.00;;
12511;SDS011;6321;53.798;10.382;2022-08-03T07:34:54;5.53;;;3.20;;
12511;SDS011;6321;53.798;10.382;2022-08-03T07:37:20;3.33;;;3.10;;
12511;SDS011;6321;53.798;10.382;2022-08-03T07:39:45;3.53;;;3.00;;
12511;SDS011;6321;53.798;10.382;2022-08-03T07:42:11;7.30;;;3.20;;
12511;SDS011;6321;53.798;10.382;2022-08-03T07:44:36;6.90;;;3.00;;
12511;SDS011;6321;53.798;10.382;2022-08-03T07:47:03;3.53;;;2.70;;
12511;SDS011;6321;53.798;10.382;2022-08-03T07:49:29;3.57;;;2.97;;
12511;SDS011;6321;53.798;10.382;2022-08-03T07:51:54;3.53;;;3.13;;
12511;SDS011;6321;53.798;10.382;2022-08-03T07:54:39;3.07;;;2.77;;
12511;SDS011;6321;53.798;10.382;2022-08-03T07:57:04;3.57;;;2.77;;
12511;SDS011;6321;53.798;10.382;2022-08-03T07:59:30;6.33;;;2.70;;
12511;SDS011;6321;53.798;10.382;2022-08-03T08:01:56;5.47;;;2.83;;
12511;SDS011;6321;53.798;10.382;2022-08-03T08:04:22;3.17;;;2.43;;
12511;SDS011;6321;53.798;10.382;2022-08-03T08:06:47;2.83;;;2.57;;
12511;SDS011;6321;53.798;10.382;2022-08-03T08:09:13;6.20;;;2.50;;
12511;SDS011;6321;53.798;10.382;2022-08-03T08:11:39;3.13;;;2.80;;
12511;SDS011;6321;53.798;10.382;2022-08-03T08:14:04;3.33;;;3.00;;
12511;SDS011;6321;53.798;10.382;2022-08-03T08:16:31;4.70;;;2.83;;
12511;SDS011;6321;53.798;10.382;2022-08-03T08:18:57;4.77;;;2.87;;
12511;SDS011;6321;53.798;10.382;2022-08-03T08:21:22;2.97;;;2.67;;
12511;SDS011;6321;53.798;10.382;2022-08-03T08:23:48;4.37;;;3.10;;
12511;SDS011;6321;53.798;10.382;2022-08-03T08:26:13;3.60;;;2.63;;
12511;SDS011;6321;53.798;10.382;2022-08-03T08:28:39;3.70;;;2.60;;
12511;SDS011;6321;53.798;10.382;2022-08-03T08:31:05;4.77;;;2.73;;
12511;SDS011;6321;53.798;10.382;2022-08-03T08:33:30;4.13;;;2.80;;
12511;SDS011;6321;53.798;10.382;2022-08-03T08:35:58;4.40;;;3.13;;
12511;SDS011;6321;53.798;10.382;2022-08-03T08:38:24;5.27;;;2.93;;
12511;SDS011;6321;53.798;10.382;2022-08-03T08:40:50;3.20;;;2.77;;
12511;SDS011;6321;53.798;10.382;2022-08-03T08:43:18;4.47;;;2.60;;
12511;SDS011;6321;53.798;10.382;2022-08-03T08:45:44;5.43;;;3.43;;
12511;SDS011;6321;53.798;10.382;2022-08-03T08:48:12;3.83;;;2.63;;
12511;SDS011;6321;53.798;10.382;2022-08-03T08:50:37;6.97;;;2.80;;
12511;SDS011;6321;53.798;10.382;2022-08-03T08:53:03;2.70;;;2.50;;
12511;SDS011;6321;53.798;10.382;2022-08-03T08:55:31;5.73;;;3.23;;
12511;SDS011;6321;53.798;10.382;2022-08-03T08:58:00;5.37;;;2.70;;
12511;SDS011;6321;53.798;10.382;2022-08-03T09:00:28;5.83;;;3.20;;
12511;SDS011;6321;53.798;10.382;2022-08-03T09:02:54;3.63;;;2.43;;
12511;SDS011;6321;53.798;10.382;2022-08-03T09:05:20;5.17;;;2.93;;
12511;SDS011;6321;53.798;10.382;2022-08-03T09:07:46;6.03;;;3.13;;
12511;SDS011;6321;53.798;10.382;2022-08-03T09:10:13;7.50;;;3.20;;
12511;SDS011;6321;53.798;10.382;2022-08-03T09:12:44;4.47;;;2.80;;
12511;SDS011;6321;53.798;10.382;2022-08-03T09:15:21;3.70;;;2.80;;
12511;SDS011;6321;53.798;10.382;2022-08-03T09:17:53;4.00;;;3.00;;
12511;SDS011;6321;53.798;10.382;2022-08-03T09:20:21;4.40;;;2.90;;
12511;SDS011;6321;53.798;10.382;2022-08-03T09:25:28;3.70;;;2.87;;
12511;SDS011;6321;53.798;10.382;2022-08-03T09:28:32;5.90;;;3.40;;
12511;SDS011;6321;53.798;10.382;2022-08-03T09:30:58;5.17;;;3.20;;
12511;SDS011;6321;53.798;10.382;2022-08-03T09:33:24;5.53;;;3.33;;
12511;SDS011;6321;53.798;10.382;2022-08-03T09:35:49;3.40;;;3.10;;
12511;SDS011;6321;53.798;10.382;2022-08-03T09:40:44;5.43;;;2.73;;
12511;SDS011;6321;53.798;10.382;2022-08-03T09:43:10;5.03;;;3.07;;
12511;SDS011;6321;53.798;10.382;2022-08-03T09:45:36;4.40;;;2.50;;
12511;SDS011;6321;53.798;10.382;2022-08-03T09:48:19;3.33;;;2.70;;
12511;SDS011;6321;53.798;10.382;2022-08-03T09:50:58;3.20;;;2.90;;
12511;SDS011;6321;53.798;10.382;2022-08-03T09:53:25;4.30;;;2.50;;
12511;SDS011;6321;53.798;10.382;2022-08-03T09:55:51;5.57;;;2.90;;
12511;SDS011;6321;53.798;10.382;2022-08-03T09:58:19;4.80;;;3.07;;
12511;SDS011;6321;53.798;10.382;2022-08-03T10:00:59;6.83;;;2.73;;
12511;SDS011;6321;53.798;10.382;2022-08-03T10:03:28;5.23;;;3.20;;
12511;SDS011;6321;53.798;10.382;2022-08-03T10:05:54;4.40;;;3.00;;
12511;SDS011;6321;53.798;10.382;2022-08-03T10:08:20;5.10;;;3.00;;
12511;SDS011;6321;53.798;10.382;2022-08-03T10:10:47;4.97;;;3.10;;
12511;SDS011;6321;53.798;10.382;2022-08-03T10:13:14;4.23;;;2.73;;
12511;SDS011;6321;53.798;10.382;2022-08-03T10:15:43;5.00;;;2.47;;
12511;SDS011;6321;53.798;10.382;2022-08-03T10:18:10;6.47;;;2.97;;
12511;SDS011;6321;53.798;10.382;2022-08-03T10:20:37;6.07;;;2.73;;
12511;SDS011;6321;53.798;10.382;2022-08-03T10:23:15;3.33;;;2.33;;
12511;SDS011;6321;53.798;10.382;2022-08-03T10:25:42;4.87;;;2.60;;
12511;SDS011;6321;53.798;10.382;2022-08-03T10:28:12;5.37;;;2.33;;
12511;SDS011;6321;53.798;10.382;2022-08-03T10:30:43;4.30;;;2.53;;
12511;SDS011;6321;53.798;10.382;2022-08-03T10:33:14;4.03;;;2.83;;
12511;SDS011;6321;53.798;10.382;2022-08-03T10:35:43;4.13;;;2.93;;
12511;SDS011;6321;53.798;10.382;2022-08-03T10:38:22;5.10;;;3.07;;
12511;SDS011;6321;53.798;10.382;2022-08-03T10:40:53;4.50;;;2.60;;
12511;SDS011;6321;53.798;10.382;2022-08-03T10:46:18;4.50;;;2.50;;
12511;SDS011;6321;53.798;10.382;2022-08-03T10:48:45;4.28;;;2.58;;
12511;SDS011;6321;53.798;10.382;2022-08-03T10:51:12;6.53;;;2.70;;
12511;SDS011;6321;53.798;10.382;2022-08-03T10:53:39;3.08;;;2.60;;
12511;SDS011;6321;53.798;10.382;2022-08-03T10:56:36;4.50;;;2.45;;
12511;SDS011;6321;53.798;10.382;2022-08-03T10:59:15;3.15;;;2.85;;
12511;SDS011;6321;53.798;10.382;2022-08-03T11:02:03;6.05;;;2.92;;
12511;SDS011;6321;53.798;10.382;2022-08-03T11:04:32;4.55;;;2.67;;
12511;SDS011;6321;53.798;10.382;2022-08-03T11:09:46;4.35;;;2.40;;
12511;SDS011;6321;53.798;10.382;2022-08-03T11:12:23;7.00;;;2.63;;
12511;SDS011;6321;53.798;10.382;2022-08-03T11:14:49;6.90;;;2.63;;
12511;SDS011;6321;53.798;10.382;2022-08-03T11:17:15;2.92;;;2.42;;
12511;SDS011;6321;53.798;10.382;2022-08-03T11:19:44;4.53;;;2.63;;
12511;SDS011;6321;53.798;10.382;2022-08-03T11:22:12;2.67;;;2.47;;
12511;SDS011;6321;53.798;10.382;2022-08-03T11:27:21;4.03;;;2.35;;
12511;SDS011;6321;53.798;10.382;2022-08-03T11:30:03;3.20;;;2.40;;
12511;SDS011;6321;53.798;10.382;2022-08-03T11:38:00;5.53;;;2.60;;
12511;SDS011;6321;53.798;10.382;2022-08-03T11:40:41;3.08;;;2.58;;
12511;SDS011;6321;53.798;10.382;2022-08-03T11:46:01;6.20;;;2.38;;
12511;SDS011;6321;53.798;10.382;2022-08-03T11:48:34;2.92;;;2.20;;
12511;SDS011;6321;53.798;10.382;2022-08-03T11:51:00;2.25;;;2.05;;
12511;SDS011;6321;53.798;10.382;2022-08-03T11:53:26;4.40;;;2.25;;
12511;SDS011;6321;53.798;10.382;2022-08-03T11:55:52;3.53;;;2.03;;
12511;SDS011;6321;53.798;10.382;2022-08-03T11:58:18;6.75;;;2.30;;
12511;SDS011;6321;53.798;10.382;2022-08-03T12:00:48;8.30;;;2.58;;
12511;SDS011;6321;53.798;10.382;2022-08-03T12:03:15;3.58;;;2.47;;
12511;SDS011;6321;53.798;10.382;2022-08-03T12:05:44;2.83;;;2.40;;
12511;SDS011;6321;53.798;10.382;2022-08-03T12:08:11;3.55;;;2.30;;
12511;SDS011;6321;53.798;10.382;2022-08-03T12:10:39;4.15;;;2.20;;
12511;SDS011;6321;53.798;10.382;2022-08-03T12:13:09;4.55;;;2.58;;
12511;SDS011;6321;53.798;10.382;2022-08-03T12:15:35;3.47;;;2.55;;
12511;SDS011;6321;53.798;10.382;2022-08-03T12:18:03;4.10;;;2.30;;
12511;SDS011;6321;53.798;10.382;2022-08-03T12:20:36;4.30;;;2.58;;
12511;SDS011;6321;53.798;10.382;2022-08-03T12:23:05;6.18;;;2.58;;
12511;SDS011;6321;53.798;10.382;2022-08-03T12:25:32;4.38;;;2.65;;
12511;SDS011;6321;53.798;10.382;2022-08-03T12:28:05;13.30;;;3.10;;
12511;SDS011;6321;53.798;10.382;2022-08-03T12:30:36;3.38;;;2.42;;
12511;SDS011;6321;53.798;10.382;2022-08-03T12:33:11;3.95;;;2.63;;
12511;SDS011;6321;53.798;10.382;2022-08-03T12:35:37;3.15;;;2.53;;
12511;SDS011;6321;53.798;10.382;2022-08-03T12:38:03;6.20;;;2.67;;
12511;SDS011;6321;53.798;10.382;2022-08-03T12:40:28;5.68;;;2.33;;
12511;SDS011;6321;53.798;10.382;2022-08-03T12:42:54;6.55;;;2.63;;
12511;SDS011;6321;53.798;10.382;2022-08-03T12:47:49;6.45;;;2.88;;
12511;SDS011;6321;53.798;10.382;2022-08-03T12:50:22;4.53;;;2.53;;
12511;SDS011;6321;53.798;10.382;2022-08-03T12:52:59;3.30;;;2.67;;
12511;SDS011;6321;53.798;10.382;2022-08-03T12:55:26;3.28;;;2.38;;
12511;SDS011;6321;53.798;10.382;2022-08-03T12:57:58;4.30;;;2.50;;
12511;SDS011;6321;53.798;10.382;2022-08-03T13:00:24;4.97;;;2.45;;
12511;SDS011;6321;53.798;10.382;2022-08-03T13:03:04;3.38;;;2.30;;
12511;SDS011;6321;53.798;10.382;2022-08-03T13:05:31;7.20;;;2.70;;
12511;SDS011;6321;53.798;10.382;2022-08-03T13:08:16;4.88;;;2.70;;
12511;SDS011;6321;53.798;10.382;2022-08-03T13:10:43;4.10;;;2.60;;
12511;SDS011;6321;53.798;10.382;2022-08-03T13:13:09;3.83;;;2.50;;
12511;SDS011;6321;53.798;10.382;2022-08-03T13:15:35;5.72;;;2.92;;
12511;SDS011;6321;53.798;10.382;2022-08-03T13:18:00;5.10;;;2.67;;
12511;SDS011;6321;53.798;10.382;2022-08-03T13:20:26;3.15;;;2.85;;
12511;SDS011;6321;53.798;10.382;2022-08-03T13:22:52;4.57;;;2.60;;
12511;SDS011;6321;53.798;10.382;2022-08-03T13:25:18;4.15;;;2.60;;
12511;SDS011;6321;53.798;10.382;2022-08-03T13:27:44;4.50;;;2.70;;
12511;SDS011;6321;53.798;10.382;2022-08-03T13:30:10;4.35;;;2.65;;
12511;SDS011;6321;53.798;10.382;2022-08-03T13:32:36;3.05;;;2.17;;
12511;SDS011;6321;53.798;10.382;2022-08-03T13:35:01;4.18;;;2.53;;
12511;SDS011;6321;53.798;10.382;2022-08-03T13:37:28;4.40;;;2.70;;
12511;SDS011;6321;53.798;10.382;2022-08-03T13:39:55;3.50;;;2.88;;
12511;SDS011;6321;53.798;10.382;2022-08-03T13:42:21;3.00;;;2.67;;
12511;SDS011;6321;53.798;10.382;2022-08-03T13:44:47;4.60;;;2.50;;
12511;SDS011;6321;53.798;10.382;2022-08-03T13:47:12;5.40;;;2.85;;
12511;SDS011;6321;53.798;10.382;2022-08-03T13:49:38;4.05;;;2.80;;
12511;SDS011;6321;53.798;10.382;2022-08-03T13:52:03;4.05;;;2.33;;
12511;SDS011;6321;53.798;10.382;2022-08-03T13:54:29;4.10;;;2.67;;
12511;SDS011;6321;53.798;10.382;2022-08-03T13:56:54;4.13;;;2.53;;
12511;SDS011;6321;53.798;10.382;2022-08-03T13:59:20;3.35;;;2.80;;
12511;SDS011;6321;53.798;10.382;2022-08-03T14:01:48;5.72;;;2.45;;
12511;SDS011;6321;53.798;10.382;2022-08-03T14:04:14;7.65;;;2.97;;
12511;SDS011;6321;53.798;10.382;2022-08-03T14:06:39;3.90;;;2.80;;
12511;SDS011;6321;53.798;10.382;2022-08-03T14:09:05;3.40;;;2.20;;
12511;SDS011;6321;53.798;10.382;2022-08-03T14:11:31;3.22;;;2.35;;
12511;SDS011;6321;53.798;10.382;2022-08-03T14:13:56;5.82;;;2.78;;
12511;SDS011;6321;53.798;10.382;2022-08-03T14:16:22;7.22;;;2.83;;
12511;SDS011;6321;53.798;10.382;2022-08-03T14:18:47;6.43;;;2.70;;
12511;SDS011;6321;53.798;10.382;2022-08-03T14:21:13;6.45;;;2.53;;
12511;SDS011;6321;53.798;10.382;2022-08-03T14:23:38;5.95;;;2.40;;
12511;SDS011;6321;53.798;10.382;2022-08-03T14:26:05;2.95;;;2.63;;
12511;SDS011;6321;53.798;10.382;2022-08-03T14:28:31;2.42;;;2.22;;
12511;SDS011;6321;53.798;10.382;2022-08-03T14:30:57;5.20;;;2.30;;
12511;SDS011;6321;53.798;10.382;2022-08-03T14:33:23;6.57;;;2.58;;
12511;SDS011;6321;53.798;10.382;2022-08-03T14:35:49;4.82;;;2.35;;
12511;SDS011;6321;53.798;10.382;2022-08-03T14:38:15;3.85;;;2.47;;
12511;SDS011;6321;53.798;10.382;2022-08-03T14:40:41;4.15;;;2.42;;
12511;SDS011;6321;53.798;10.382;2022-08-03T14:43:07;4.75;;;2.40;;
12511;SDS011;6321;53.798;10.382;2022-08-03T14:45:32;5.32;;;2.70;;
12511;SDS011;6321;53.798;10.382;2022-08-03T14:47:58;3.92;;;2.63;;
12511;SDS011;6321;53.798;10.382;2022-08-03T14:50:24;3.83;;;2.47;;
12511;SDS011;6321;53.798;10.382;2022-08-03T14:52:52;4.60;;;2.35;;
12511;SDS011;6321;53.798;10.382;2022-08-03T14:55:17;4.13;;;2.30;;
12511;SDS011;6321;53.798;10.382;2022-08-03T14:57:43;4.65;;;2.67;;
12511;SDS011;6321;53.798;10.382;2022-08-03T15:00:09;5.50;;;2.25;;
12511;SDS011;6321;53.798;10.382;2022-08-03T15:02:35;4.22;;;2.40;;
12511;SDS011;6321;53.798;10.382;2022-08-03T15:05:00;4.07;;;2.17;;
12511;SDS011;6321;53.798;10.382;2022-08-03T15:07:26;6.53;;;2.95;;
12511;SDS011;6321;53.798;10.382;2022-08-03T15:09:51;6.05;;;2.45;;
12511;SDS011;6321;53.798;10.382;2022-08-03T15:12:17;4.00;;;2.42;;
12511;SDS011;6321;53.798;10.382;2022-08-03T15:14:42;4.28;;;2.60;;
12511;SDS011;6321;53.798;10.382;2022-08-03T15:17:08;3.78;;;2.60;;
12511;SDS011;6321;53.798;10.382;2022-08-03T15:19:33;4.90;;;2.50;;
12511;SDS011;6321;53.798;10.382;2022-08-03T15:21:59;3.17;;;2.22;;